Albion, Maine
Current Conditions -  °F | °C
As of 4:35 AM on Friday 24 Oct 2014 (Local Time) from KWVL Reporting Station
Overcast Overcast  
Wind Chill: 39°   Ceiling: 1300
Heat Index: 46°   Visibility: 10mi
Dew Point: 39°   Wind: 17mph
Humidity: 76%   Direction: 10°N
Pressure: 29.67"   Gusts: 24mph
Location:  44.53°N, 69.44°W
Report Text: KWVL 240835Z 01015G21KT 10SM OVC013 08/04 A2967 RMK AO1
Loading
Personal Weather Stations






























Interactive Weather Map New forecast layout! Learn more

10-Day Weather Forecast

Advertisements
Track Severe Weather on mobile